Observation data for Seagraves on 11/17/2019      Previous  Date       Current Mesonet Observations  Soil Data  Daily Summary Page  Observations in Plain Language
KSGV 170600Z 24007KT 04/02 A2998 RMK A01 T00410019  RH  087%=      5-min Rain = 0
KSGV 170605Z 24007KT 04/02 A2998 RMK A01 T00430022  RH  087%=      5-min Rain = 0
KSGV 170610Z 24007KT 05/02 A2998 RMK A01 T00460023  RH  087%=      5-min Rain = 0
KSGV 170615Z 24007KT 05/02 A2998 RMK A01 T00470024  RH  087%=      5-min Rain = 0
KSGV 170620Z 24007KT 05/03 A2998 RMK A01 T00480026  RH  087%=      5-min Rain = 0
KSGV 170625Z 23008KT 05/03 A2997 RMK A01 T00500027  RH  087%=      5-min Rain = 0
KSGV 170630Z 23007KT 05/03 A2997 RMK A01 T00490027  RH  087%=      5-min Rain = 0
KSGV 170635Z 23007KT 05/03 A2997 RMK A01 T00480027  RH  087%=      5-min Rain = 0
KSGV 170640Z 24006KT 05/03 A2997 RMK A01 T00480027  RH  088%=      5-min Rain = 0
KSGV 170645Z 24006KT 05/03 A2997 RMK A01 T00460026  RH  088%=      5-min Rain = 0
KSGV 170650Z 24005KT 04/03 A2997 RMK A01 T00440025  RH  089%=      5-min Rain = 0
KSGV 170655Z 24005KT 04/03 A2997 RMK A01 T00430025  RH  089%=      5-min Rain = 0
KSGV 170700Z 23005KT 04/02 A2996 RMK A01 T00420023  RH  089%=      5-min Rain = 0
KSGV 170705Z 22006KT 04/02 A2996 RMK A01 T00400023  RH  090%=      5-min Rain = 0
KSGV 170710Z 23006KT 04/02 A2996 RMK A01 T00400024  RH  091%=      5-min Rain = 0
KSGV 170715Z 23005KT 04/03 A2996 RMK A01 T00410025  RH  091%=      5-min Rain = 0
KSGV 170720Z 23005KT 04/03 A2996 RMK A01 T00420026  RH  091%=      5-min Rain = 0
KSGV 170725Z 24004KT 04/03 A2996 RMK A01 T00430026  RH  091%=      5-min Rain = 0
KSGV 170730Z 27003KT 04/03 A2996 RMK A01 T00420025  RH  090%=      5-min Rain = 0
KSGV 170735Z 25004KT 04/03 A2996 RMK A01 T00410025  RH  091%=      5-min Rain = 0
KSGV 170740Z 24006KT 04/03 A2996 RMK A01 T00440028  RH  091%=      5-min Rain = 0
KSGV 170745Z 23006KT 05/03 A2996 RMK A01 T00460030  RH  091%=      5-min Rain = 0
KSGV 170750Z 24005KT 05/03 A2996 RMK A01 T00470030  RH  091%=      5-min Rain = 0
KSGV 170755Z 25004KT 05/03 A2996 RMK A01 T00460030  RH  091%=      5-min Rain = 0
KSGV 170800Z 27004KT 05/03 A2996 RMK A01 T00450029  RH  091%=      5-min Rain = 0
KSGV 170805Z 26007KT 05/03 A2996 RMK A01 T00470030  RH  091%=      5-min Rain = 0
KSGV 170810Z 26007KT 05/03 A2996 RMK A01 T00480031  RH  090%=      5-min Rain = 0
KSGV 170815Z 27007KT 05/03 A2996 RMK A01 T00510034  RH  090%=      5-min Rain = 0
KSGV 170820Z 27009KT 05/04 A2996 RMK A01 T00540035  RH  089%=      5-min Rain = 0
KSGV 170825Z 27009KT 06/04 A2995 RMK A01 T00570035  RH  087%=      5-min Rain = 0
KSGV 170830Z 28010KT 06/03 A2996 RMK A01 T00580034  RH  086%=      5-min Rain = 0
KSGV 170835Z 28010KT 06/03 A2996 RMK A01 T00580032  RH  085%=      5-min Rain = 0
KSGV 170840Z 28009KT 06/03 A2996 RMK A01 T00570031  RH  085%=      5-min Rain = 0
KSGV 170845Z 28010KT 06/03 A2996 RMK A01 T00570030  RH  084%=      5-min Rain = 0
KSGV 170850Z 28009KT 06/03 A2996 RMK A01 T00550028  RH  084%=      5-min Rain = 0
KSGV 170855Z 29009KT 05/03 A2996 RMK A01 T00540027  RH  084%=      5-min Rain = 0
KSGV 170900Z 29008KT 05/03 A2996 RMK A01 T00520025  RH  084%=      5-min Rain = 0
KSGV 170905Z 30009KT 05/02 A2996 RMK A01 T00530023  RH  082%=      5-min Rain = 0
KSGV 170910Z 31009KT 05/02 A2997 RMK A01 T00540020  RH  080%=      5-min Rain = 0
KSGV 170915Z 32009KT 05/02 A2997 RMK A01 T00520018  RH  080%=      5-min Rain = 0
KSGV 170920Z 32010KT 05/02 A2998 RMK A01 T00530017  RH  079%=      5-min Rain = 0
KSGV 170925Z 33010KT 06/02 A2998 RMK A01 T00560016  RH  076%=      5-min Rain = 0
KSGV 170930Z 34009KT 05/01 A2998 RMK A01 T00540014  RH  077%=      5-min Rain = 0
KSGV 170935Z 34009KT 05/01 A2998 RMK A01 T00520013  RH  077%=      5-min Rain = 0
KSGV 170940Z 34008KT 05/01 A2998 RMK A01 T00480012  RH  078%=      5-min Rain = 0
KSGV 170945Z 33008KT 05/01 A2998 RMK A01 T00480011  RH  078%=      5-min Rain = 0
KSGV 170950Z 33008KT 05/01 A2998 RMK A01 T00480011  RH  078%=      5-min Rain = 0
KSGV 170955Z 34011G16KT 05/01 A2998 RMK A01 T00540011  RH  075%=      5-min Rain = 0
KSGV 171000Z 35013KT 06/01 A2999 RMK A01 T00620010  RH  071%=      5-min Rain = 0
KSGV 171005Z 35015KT 07/01 A30 RMK A01 T00680010  RH  068%=      5-min Rain = 0
KSGV 171010Z 36018G25KT 08/01 A30 RMK A01 T00750009  RH  064%=      5-min Rain = 0
KSGV 171015Z 01019G25KT 08/01 A30 RMK A01 T00840006  RH  059%=      5-min Rain = 0
KSGV 171020Z 01017G24KT 09/00 A3001 RMK A01 T00880004  RH  057%=      5-min Rain = 0
KSGV 171025Z 01017G23KT 09/00 A3001 RMK A01 T00890003  RH  055%=      5-min Rain = 0
KSGV 171030Z 01016G24KT 09/00 A3002 RMK A01 T00870003  RH  056%=      5-min Rain = 0
KSGV 171035Z 01018G25KT 09/00 A3002 RMK A01 T00870001  RH  055%=      5-min Rain = 0
KSGV 171040Z 00018G23KT 09/00 A3002 RMK A01 T008600-0  RH  055%=      5-min Rain = 0
KSGV 171045Z 00019G24KT 09/M00 A3003 RMK A01 T00851002  RH  055%=      5-min Rain = 0
KSGV 171050Z 00017G22KT 08/M00 A3003 RMK A01 T00831003  RH  055%=      5-min Rain = 0
KSGV 171055Z 36018KT 08/M00 A3003 RMK A01 T00821004  RH  055%=      5-min Rain = 0
KSGV 171100Z 00018G24KT 08/M01 A3003 RMK A01 T00831005  RH  054%=      5-min Rain = 0
KSGV 171105Z 00016G21KT 08/M01 A3003 RMK A01 T00811006  RH  055%=      5-min Rain = 0
KSGV 171110Z 36015G20KT 08/M01 A3003 RMK A01 T00801006  RH  055%=      5-min Rain = 0
KSGV 171115Z 36015KT 08/M01 A3003 RMK A01 T00791006  RH  056%=      5-min Rain = 0
KSGV 171120Z 36014G19KT 08/M01 A3004 RMK A01 T00771006  RH  056%=      5-min Rain = 0
KSGV 171125Z 36015G21KT 08/M01 A3004 RMK A01 T00781007  RH  056%=      5-min Rain = 0
KSGV 171130Z 00015G21KT 08/M01 A3004 RMK A01 T00791007  RH  055%=      5-min Rain = 0
KSGV 171135Z 00015G23KT 08/M01 A3004 RMK A01 T00781007  RH  055%=      5-min Rain = 0
KSGV 171140Z 00015G20KT 08/M01 A3005 RMK A01 T00791007  RH  055%=      5-min Rain = 0
KSGV 171145Z 00015G20KT 08/M01 A3005 RMK A01 T00791007  RH  055%=      5-min Rain = 0
KSGV 171150Z 00015KT 08/M01 A3005 RMK A01 T00771006  RH  056%=      5-min Rain = 0
KSGV 171155Z 00014G19KT 08/M01 A3006 RMK A01 T00761006  RH  056%=      5-min Rain = 0
KSGV 171200Z 00015G21KT 08/M01 A3006 RMK A01 T00761006  RH  057%=      5-min Rain = 0
KSGV 171205Z 00016G22KT 08/M01 A3006 RMK A01 T00771006  RH  056%=      5-min Rain = 0
KSGV 171210Z 00016G21KT 08/M01 A3007 RMK A01 T00761006  RH  056%=      5-min Rain = 0
KSGV 171215Z 00015G20KT 08/M01 A3007 RMK A01 T00751006  RH  057%=      5-min Rain = 0
KSGV 171220Z 00016G21KT 08/M01 A3007 RMK A01 T00751006  RH  057%=      5-min Rain = 0
KSGV 171225Z 00015G20KT 07/M01 A3008 RMK A01 T00741005  RH  058%=      5-min Rain = 0
KSGV 171230Z 00016G21KT 07/M01 A3008 RMK A01 T00731005  RH  058%=      5-min Rain = 0
KSGV 171235Z 00016G21KT 07/M01 A3009 RMK A01 T00741005  RH  058%=      5-min Rain = 0
KSGV 171240Z 00016KT 07/M00 A3009 RMK A01 T00741004  RH  058%=      5-min Rain = 0
KSGV 171245Z 00016KT 07/M00 A3009 RMK A01 T00731004  RH  059%=      5-min Rain = 0
KSGV 171250Z 00015G21KT 07/M00 A301 RMK A01 T00721004  RH  059%=      5-min Rain = 0
KSGV 171255Z 00015G21KT 07/M00 A301 RMK A01 T00721004  RH  059%=      5-min Rain = 0
KSGV 171300Z 00014KT 07/M00 A301 RMK A01 T00701003  RH  060%=      5-min Rain = 0
KSGV 171305Z 00014KT 07/M00 A3011 RMK A01 T00691003  RH  061%=      5-min Rain = 0
KSGV 171310Z 00015G20KT 07/M00 A3011 RMK A01 T00671004  RH  061%=      5-min Rain = 0
KSGV 171315Z 00015KT 07/M00 A3012 RMK A01 T00661003  RH  062%=      5-min Rain = 0
KSGV 171320Z 00015KT 07/M00 A3012 RMK A01 T00651003  RH  062%=      5-min Rain = 0
KSGV 171325Z 00014G19KT 07/M00 A3013 RMK A01 T00651003  RH  063%=      5-min Rain = 0
KSGV 171330Z 00016G23KT 06/M00 A3013 RMK A01 T00641002  RH  063%=      5-min Rain = 0
KSGV 171335Z 00015G21KT 06/M00 A3014 RMK A01 T00641001  RH  064%=      5-min Rain = 0
KSGV 171340Z 36016KT 06/M00 A3014 RMK A01 T00641001  RH  064%=      5-min Rain = 0
KSGV 171345Z 00016G22KT 06/00 A3014 RMK A01 T00640000  RH  065%=      5-min Rain = 0
KSGV 171350Z 00016KT 07/00 A3014 RMK A01 T00650001  RH  065%=      5-min Rain = 0
KSGV 171355Z 00017G25KT 07/00 A3015 RMK A01 T00650002  RH  065%=      5-min Rain = 0
KSGV 171400Z 00017KT 07/00 A3015 RMK A01 T00670003  RH  065%=      5-min Rain = 0
KSGV 171405Z 00016KT 07/00 A3016 RMK A01 T00680004  RH  065%=      5-min Rain = 0
KSGV 171410Z 00015G20KT 07/01 A3016 RMK A01 T00680005  RH  065%=      5-min Rain = 0
KSGV 171415Z 00018G23KT 07/01 A3016 RMK A01 T00700006  RH  064%=      5-min Rain = 0
KSGV 171420Z 01015G22KT 07/01 A3017 RMK A01 T00720007  RH  064%=      5-min Rain = 0
KSGV 171425Z 01017G23KT 07/01 A3017 RMK A01 T00730008  RH  064%=      5-min Rain = 0
KSGV 171430Z 01016G22KT 07/01 A3017 RMK A01 T00740008  RH  064%=      5-min Rain = 0
KSGV 171435Z 01014G20KT 08/01 A3018 RMK A01 T00750009  RH  064%=      5-min Rain = 0
KSGV 171440Z 00015G22KT 08/01 A3018 RMK A01 T00770010  RH  063%=      5-min Rain = 0
KSGV 171445Z 00017G23KT 08/01 A3018 RMK A01 T00770010  RH  063%=      5-min Rain = 0
KSGV 171450Z 00017G22KT 08/01 A3018 RMK A01 T00780010  RH  063%=      5-min Rain = 0
KSGV 171455Z 01015G23KT 08/01 A3018 RMK A01 T00800011  RH  063%=      5-min Rain = 0
KSGV 171500Z 00016G23KT 08/01 A3018 RMK A01 T00810011  RH  062%=      5-min Rain = 0
KSGV 171505Z 01017G24KT 08/01 A3018 RMK A01 T00820010  RH  062%=      5-min Rain = 0
KSGV 171510Z 00019G25KT 08/01 A3018 RMK A01 T00830011  RH  061%=      5-min Rain = 0
KSGV 171515Z 01018G24KT 08/01 A3018 RMK A01 T00840011  RH  061%=      5-min Rain = 0
KSGV 171520Z 01018G26KT 09/01 A3019 RMK A01 T00850011  RH  060%=      5-min Rain = 0
KSGV 171525Z 01017G24KT 09/01 A3019 RMK A01 T00870012  RH  060%=      5-min Rain = 0
KSGV 171530Z 01017G24KT 09/01 A3019 RMK A01 T00880012  RH  060%=      5-min Rain = 0
KSGV 171535Z 01018G28KT 09/01 A3019 RMK A01 T00900012  RH  059%=      5-min Rain = 0
KSGV 171540Z 01019G25KT 09/01 A302 RMK A01 T00910012  RH  059%=      5-min Rain = 0
KSGV 171545Z 01018G25KT 09/01 A302 RMK A01 T00920012  RH  058%=      5-min Rain = 0
KSGV 171550Z 01016G24KT 09/01 A302 RMK A01 T00940013  RH  058%=      5-min Rain = 0
KSGV 171555Z 01016G24KT 10/01 A302 RMK A01 T00980013  RH  056%=      5-min Rain = 0
KSGV 171600Z 01016G21KT 10/01 A302 RMK A01 T00990014  RH  056%=      5-min Rain = 0
KSGV 171605Z 01017G23KT 10/01 A302 RMK A01 T01010014  RH  056%=      5-min Rain = 0
KSGV 171610Z 02017G23KT 10/01 A302 RMK A01 T00990012  RH  056%=      5-min Rain = 0
KSGV 171615Z 01016KT 10/01 A302 RMK A01 T01030014  RH  055%=      5-min Rain = 0
KSGV 171620Z 01016G23KT 11/01 A302 RMK A01 T01050014  RH  054%=      5-min Rain = 0
KSGV 171625Z 01019G25KT 10/01 A302 RMK A01 T01030013  RH  054%=      5-min Rain = 0
KSGV 171630Z 01017G22KT 11/01 A302 RMK A01 T01050013  RH  054%=      5-min Rain = 0
KSGV 171635Z 01017G23KT 11/01 A302 RMK A01 T01070014  RH  053%=      5-min Rain = 0
KSGV 171640Z 01017G22KT 11/01 A3019 RMK A01 T01080014  RH  053%=      5-min Rain = 0
KSGV 171645Z 01015G23KT 11/01 A3019 RMK A01 T01120014  RH  052%=      5-min Rain = 0
KSGV 171650Z 00017G22KT 11/01 A3019 RMK A01 T01120014  RH  052%=      5-min Rain = 0
KSGV 171655Z 01016G23KT 11/01 A3019 RMK A01 T01130014  RH  051%=      5-min Rain = 0
KSGV 171700Z 01017G22KT 11/01 A3019 RMK A01 T01140014  RH  051%=      5-min Rain = 0
KSGV 171705Z 01015G21KT 12/01 A3019 RMK A01 T01160014  RH  050%=      5-min Rain = 0
KSGV 171710Z 01016G21KT 12/01 A3019 RMK A01 T01180014  RH  050%=      5-min Rain = 0
KSGV 171715Z 01014G19KT 12/02 A3019 RMK A01 T01210015  RH  049%=      5-min Rain = 0
KSGV 171720Z 02013G19KT 12/02 A3019 RMK A01 T01230015  RH  048%=      5-min Rain = 0
KSGV 171725Z 01015G20KT 12/02 A3019 RMK A01 T01240015  RH  048%=      5-min Rain = 0
KSGV 171730Z 01015KT 13/02 A3019 RMK A01 T01250015  RH  048%=      5-min Rain = 0
KSGV 171735Z 01014KT 13/01 A3018 RMK A01 T01250014  RH  048%=      5-min Rain = 0
KSGV 171740Z 02013G18KT 13/02 A3018 RMK A01 T01300016  RH  046%=      5-min Rain = 0
KSGV 171745Z 02013G18KT 13/02 A3018 RMK A01 T01310016  RH  046%=      5-min Rain = 0
KSGV 171750Z 01013KT 14/02 A3018 RMK A01 T01350016  RH  045%=      5-min Rain = 0
KSGV 171755Z 02013G18KT 13/02 A3018 RMK A01 T01340015  RH  045%=      5-min Rain = 0
KSGV 171800Z 02012KT 14/02 A3018 RMK A01 T01350016  RH  045%=      5-min Rain = 0
KSGV 171805Z 01013G18KT 14/02 A3018 RMK A01 T01380015  RH  044%=      5-min Rain = 0
KSGV 171810Z 01012G17KT 14/02 A3018 RMK A01 T01370015  RH  044%=      5-min Rain = 0
KSGV 171815Z 01011G16KT 14/02 A3018 RMK A01 T01400017  RH  044%=      5-min Rain = 0
KSGV 171820Z 01013KT 14/02 A3018 RMK A01 T01410016  RH  043%=      5-min Rain = 0
KSGV 171825Z 01013G19KT 14/02 A3017 RMK A01 T01410016  RH  043%=      5-min Rain = 0
KSGV 171830Z 02012G17KT 14/02 A3017 RMK A01 T01440016  RH  042%=      5-min Rain = 0
KSGV 171835Z 01011G17KT 14/02 A3017 RMK A01 T01440016  RH  042%=      5-min Rain = 0
KSGV 171840Z 02011G18KT 15/02 A3016 RMK A01 T01450016  RH  042%=      5-min Rain = 0
KSGV 171845Z 02010KT 15/02 A3016 RMK A01 T01480016  RH  041%=      5-min Rain = 0
KSGV 171850Z 03009KT 15/02 A3016 RMK A01 T01480015  RH  041%=      5-min Rain = 0
KSGV 171855Z 01009KT 15/02 A3016 RMK A01 T01510017  RH  041%=      5-min Rain = 0
KSGV 171900Z 01009G15KT 15/02 A3015 RMK A01 T01510017  RH  041%=      5-min Rain = 0
KSGV 171905Z 02008KT 16/02 A3015 RMK A01 T01550017  RH  040%=      5-min Rain = 0
KSGV 171910Z 03009KT 16/02 A3015 RMK A01 T01560015  RH  039%=      5-min Rain = 0
KSGV 171915Z 02010KT 15/02 A3015 RMK A01 T01540015  RH  039%=      5-min Rain = 0
KSGV 171920Z 02008KT 16/01 A3015 RMK A01 T01570013  RH  038%=      5-min Rain = 0
KSGV 171925Z 02008KT 16/01 A3014 RMK A01 T01560014  RH  039%=      5-min Rain = 0
KSGV 171930Z 01009G14KT 16/02 A3014 RMK A01 T01580015  RH  039%=      5-min Rain = 0
KSGV 171935Z 02009G15KT 16/01 A3014 RMK A01 T01570012  RH  038%=      5-min Rain = 0
KSGV 171940Z 03007G12KT 16/01 A3014 RMK A01 T01590014  RH  038%=      5-min Rain = 0
KSGV 171945Z 03006KT 16/01 A3014 RMK A01 T01600013  RH  038%=      5-min Rain = 0
KSGV 171950Z 01010KT 16/01 A3014 RMK A01 T01600013  RH  038%=      5-min Rain = 0
KSGV 171955Z 02007KT 16/01 A3014 RMK A01 T01610013  RH  037%=      5-min Rain = 0
KSGV 172000Z 02008G15KT 16/01 A3013 RMK A01 T01620012  RH  037%=      5-min Rain = 0
KSGV 172005Z 04006G11KT 16/01 A3013 RMK A01 T01640013  RH  036%=      5-min Rain = 0
KSGV 172010Z 01009G14KT 16/01 A3013 RMK A01 T01640012  RH  036%=      5-min Rain = 0
KSGV 172015Z 36008KT 16/01 A3013 RMK A01 T01630012  RH  037%=      5-min Rain = 0
KSGV 172020Z 02007KT 16/01 A3012 RMK A01 T01640014  RH  037%=      5-min Rain = 0
KSGV 172025Z 01009KT 16/01 A3013 RMK A01 T01630012  RH  036%=      5-min Rain = 0
KSGV 172030Z 36007G12KT 17/01 A3013 RMK A01 T01650014  RH  036%=      5-min Rain = 0
KSGV 172035Z 01008KT 17/01 A3013 RMK A01 T01650013  RH  036%=      5-min Rain = 0
KSGV 172040Z 01008KT 17/01 A3013 RMK A01 T01650013  RH  036%=      5-min Rain = 0
KSGV 172045Z 02007G12KT 17/01 A3012 RMK A01 T01650013  RH  036%=      5-min Rain = 0
KSGV 172050Z 00007KT 17/02 A3012 RMK A01 T01690016  RH  036%=      5-min Rain = 0
KSGV 172055Z 02007KT 17/01 A3012 RMK A01 T01690014  RH  036%=      5-min Rain = 0
KSGV 172100Z 03007KT 17/01 A3012 RMK A01 T01680011  RH  035%=      5-min Rain = 0
KSGV 172105Z 02006KT 17/01 A3012 RMK A01 T01680012  RH  035%=      5-min Rain = 0
KSGV 172110Z 02007KT 17/01 A3012 RMK A01 T01650010  RH  035%=      5-min Rain = 0
KSGV 172115Z 01007KT 17/01 A3012 RMK A01 T01660010  RH  035%=      5-min Rain = 0
KSGV 172120Z 01008KT 17/01 A3012 RMK A01 T01650011  RH  036%=      5-min Rain = 0
KSGV 172125Z 00006KT 17/02 A3011 RMK A01 T01660016  RH  037%=      5-min Rain = 0
KSGV 172130Z 02008KT 17/01 A3011 RMK A01 T01650014  RH  037%=      5-min Rain = 0
KSGV 172135Z 01007KT 16/01 A3011 RMK A01 T01620012  RH  037%=      5-min Rain = 0
KSGV 172140Z 35006KT 16/01 A3011 RMK A01 T01640014  RH  037%=      5-min Rain = 0
KSGV 172145Z 01006KT 16/01 A3011 RMK A01 T01620011  RH  036%=      5-min Rain = 0
KSGV 172150Z 01005KT 16/01 A3011 RMK A01 T01630012  RH  036%=      5-min Rain = 0
KSGV 172155Z 02005KT 17/01 A3011 RMK A01 T01650012  RH  036%=      5-min Rain = 0
KSGV 172200Z 01005KT 16/01 A3011 RMK A01 T01630010  RH  036%=      5-min Rain = 0
KSGV 172205Z 04004KT 16/01 A301 RMK A01 T01620011  RH  036%=      5-min Rain = 0
KSGV 172210Z 05003KT 16/01 A3011 RMK A01 T01620012  RH  037%=      5-min Rain = 0
KSGV 172215Z 06003KT 16/01 A3011 RMK A01 T01630012  RH  037%=      5-min Rain = 0
KSGV 172220Z 07002KT 16/01 A3011 RMK A01 T01630012  RH  036%=      5-min Rain = 0
KSGV 172225Z 02003KT 16/01 A301 RMK A01 T01620012  RH  037%=      5-min Rain = 0
KSGV 172230Z 00003KT 16/01 A301 RMK A01 T01610013  RH  037%=      5-min Rain = 0
KSGV 172235Z 01002KT 16/01 A3011 RMK A01 T01590012  RH  037%=      5-min Rain = 0
KSGV 172240Z 00003KT 16/01 A301 RMK A01 T01570012  RH  038%=      5-min Rain = 0
KSGV 172245Z 06003KT 16/01 A301 RMK A01 T01550013  RH  039%=      5-min Rain = 0
KSGV 172250Z 07002KT 15/01 A301 RMK A01 T01540012  RH  038%=      5-min Rain = 0
KSGV 172255Z 02003KT 16/01 A301 RMK A01 T01560013  RH  039%=      5-min Rain = 0
KSGV 172300Z 01002KT 16/01 A3009 RMK A01 T01550013  RH  039%=      5-min Rain = 0
KSGV 172305Z 02003KT 15/01 A301 RMK A01 T01520012  RH  039%=      5-min Rain = 0
KSGV 172310Z 03002KT 15/01 A301 RMK A01 T01500011  RH  039%=      5-min Rain = 0
KSGV 172315Z 04002KT 15/01 A301 RMK A01 T01490012  RH  040%=      5-min Rain = 0
KSGV 172320Z 04002KT 15/01 A301 RMK A01 T01470012  RH  040%=      5-min Rain = 0
KSGV 172325Z 04002KT 15/01 A301 RMK A01 T01460012  RH  041%=      5-min Rain = 0
KSGV 172330Z 05002KT 15/01 A301 RMK A01 T01450012  RH  041%=      5-min Rain = 0
KSGV 172335Z 07002KT 14/01 A301 RMK A01 T01420013  RH  042%=      5-min Rain = 0
KSGV 172340Z 06002KT 14/01 A301 RMK A01 T01390014  RH  043%=      5-min Rain = 0
KSGV 172345Z 04003KT 14/01 A301 RMK A01 T01370013  RH  043%=      5-min Rain = 0
KSGV 172350Z 05002KT 14/01 A3011 RMK A01 T01350012  RH  044%=      5-min Rain = 0
KSGV 172355Z 05002KT 13/01 A3011 RMK A01 T01320013  RH  045%=      5-min Rain = 0
KSGV 180000Z 05002KT 13/01 A3011 RMK A01 T01290012  RH  045%=      5-min Rain = 0
KSGV 180005Z 05003KT 13/01 A3011 RMK A01 T01280013  RH  046%=      5-min Rain = 0
KSGV 180010Z 06003KT 13/01 A3011 RMK A01 T01250013  RH  047%=      5-min Rain = 0
KSGV 180015Z 07003KT 12/02 A3011 RMK A01 T01220015  RH  049%=      5-min Rain = 0
KSGV 180020Z 08003KT 12/02 A3011 RMK A01 T01200015  RH  049%=      5-min Rain = 0
KSGV 180025Z 08003KT 12/02 A3011 RMK A01 T01170015  RH  050%=      5-min Rain = 0
KSGV 180030Z 08003KT 12/01 A3011 RMK A01 T01160014  RH  050%=      5-min Rain = 0
KSGV 180035Z 08003KT 11/02 A3011 RMK A01 T01140015  RH  051%=      5-min Rain = 0
KSGV 180040Z 09002KT 11/02 A3011 RMK A01 T01120017  RH  053%=      5-min Rain = 0
KSGV 180045Z 09002KT 11/02 A3012 RMK A01 T01090016  RH  054%=      5-min Rain = 0
KSGV 180050Z 09003KT 11/02 A3011 RMK A01 T01070016  RH  054%=      5-min Rain = 0
KSGV 180055Z 09003KT 11/02 A3011 RMK A01 T01050017  RH  055%=      5-min Rain = 0
KSGV 180100Z 09003KT 10/02 A3011 RMK A01 T01040016  RH  055%=      5-min Rain = 0
KSGV 180105Z 10002KT 10/02 A3011 RMK A01 T01040015  RH  055%=      5-min Rain = 0
KSGV 180110Z 08003KT 10/01 A3011 RMK A01 T01020014  RH  055%=      5-min Rain = 0
KSGV 180115Z 08003KT 10/02 A3011 RMK A01 T01000015  RH  056%=      5-min Rain = 0
KSGV 180120Z 12002KT 10/01 A3011 RMK A01 T01000014  RH  056%=      5-min Rain = 0
KSGV 180125Z 09003KT 10/01 A3011 RMK A01 T00950014  RH  058%=      5-min Rain = 0
KSGV 180130Z 09003KT 09/02 A3011 RMK A01 T00920016  RH  060%=      5-min Rain = 0
KSGV 180135Z 10003KT 09/02 A3011 RMK A01 T00900015  RH  060%=      5-min Rain = 0
KSGV 180140Z 12002KT 09/02 A3011 RMK A01 T00900015  RH  060%=      5-min Rain = 0
KSGV 180145Z 12003KT 09/01 A3012 RMK A01 T00870013  RH  060%=      5-min Rain = 0
KSGV 180150Z 11002KT 08/01 A3012 RMK A01 T00840014  RH  062%=      5-min Rain = 0
KSGV 180155Z 13002KT 08/02 A3012 RMK A01 T00800015  RH  064%=      5-min Rain = 0
KSGV 180200Z 14002KT 07/01 A3012 RMK A01 T00700007  RH  065%=      5-min Rain = 0
KSGV 180205Z 14001KT 06/00 A3012 RMK A01 T00620003  RH  067%=      5-min Rain = 0
KSGV 180210Z 14000KT 06/00 A3012 RMK A01 T00550004  RH  071%=      5-min Rain = 0
KSGV 180215Z 14000KT 05/00 A3012 RMK A01 T00510004  RH  072%=      5-min Rain = 0
KSGV 180220Z 18001KT 05/00 A3011 RMK A01 T00490003  RH  073%=      5-min Rain = 0
KSGV 180225Z 19002KT 05/00 A3012 RMK A01 T00460003  RH  075%=      5-min Rain = 0
KSGV 180230Z 19002KT 05/01 A3012 RMK A01 T00460005  RH  076%=      5-min Rain = 0
KSGV 180235Z 18002KT 05/01 A3012 RMK A01 T00460006  RH  076%=      5-min Rain = 0
KSGV 180240Z 18002KT 05/01 A3012 RMK A01 T00470007  RH  076%=      5-min Rain = 0
KSGV 180245Z 19002KT 05/01 A3012 RMK A01 T00470008  RH  077%=      5-min Rain = 0
KSGV 180250Z 19002KT 05/01 A3013 RMK A01 T00470007  RH  077%=      5-min Rain = 0
KSGV 180255Z 20003KT 05/01 A3013 RMK A01 T00470008  RH  077%=      5-min Rain = 0
KSGV 180300Z 21004KT 05/01 A3013 RMK A01 T00470008  RH  077%=      5-min Rain = 0
KSGV 180305Z 20004KT 05/01 A3013 RMK A01 T00470009  RH  077%=      5-min Rain = 0
KSGV 180310Z 21003KT 05/01 A3013 RMK A01 T00480009  RH  077%=      5-min Rain = 0
KSGV 180315Z 20002KT 05/01 A3013 RMK A01 T00500010  RH  077%=      5-min Rain = 0
KSGV 180320Z 21002KT 05/01 A3013 RMK A01 T00520011  RH  076%=      5-min Rain = 0
KSGV 180325Z 22003KT 05/01 A3013 RMK A01 T00530011  RH  076%=      5-min Rain = 0
KSGV 180330Z 25003KT 06/01 A3013 RMK A01 T00550012  RH  075%=      5-min Rain = 0
KSGV 180335Z 25003KT 05/01 A3013 RMK A01 T00540010  RH  075%=      5-min Rain = 0
KSGV 180340Z 27003KT 05/01 A3013 RMK A01 T00500008  RH  075%=      5-min Rain = 0
KSGV 180345Z 27002KT 04/01 A3013 RMK A01 T00430006  RH  078%=      5-min Rain = 0
KSGV 180350Z 27002KT 04/01 A3013 RMK A01 T00400006  RH  079%=      5-min Rain = 0
KSGV 180355Z 26001KT 04/01 A3012 RMK A01 T00400007  RH  080%=      5-min Rain = 0
KSGV 180400Z 25001KT 05/01 A3012 RMK A01 T00460009  RH  078%=      5-min Rain = 0
KSGV 180405Z 25001KT 05/01 A3012 RMK A01 T00470009  RH  077%=      5-min Rain = 0
KSGV 180410Z 25001KT 05/01 A3012 RMK A01 T00480008  RH  076%=      5-min Rain = 0
KSGV 180415Z 24002KT 05/01 A3012 RMK A01 T00480009  RH  077%=      5-min Rain = 0
KSGV 180420Z 25001KT 05/01 A3012 RMK A01 T00480009  RH  077%=      5-min Rain = 0
KSGV 180425Z 25001KT 05/01 A3012 RMK A01 T00460009  RH  078%=      5-min Rain = 0
KSGV 180430Z 25002KT 05/01 A3012 RMK A01 T00460009  RH  078%=      5-min Rain = 0
KSGV 180435Z 25002KT 04/01 A3012 RMK A01 T00440008  RH  078%=      5-min Rain = 0
KSGV 180440Z 25002KT 04/01 A3012 RMK A01 T00420007  RH  079%=      5-min Rain = 0
KSGV 180445Z 25002KT 04/01 A3012 RMK A01 T00400006  RH  080%=      5-min Rain = 0
KSGV 180450Z 25003KT 04/01 A3011 RMK A01 T00380006  RH  081%=      5-min Rain = 0
KSGV 180455Z 25003KT 04/00 A3011 RMK A01 T00350004  RH  081%=      5-min Rain = 0
KSGV 180500Z 25002KT 03/00 A3011 RMK A01 T00310001  RH  082%=      5-min Rain = 0
KSGV 180505Z 25002KT 03/01 A3011 RMK A01 T00310006  RH  084%=      5-min Rain = 0
KSGV 180510Z 26002KT 03/01 A3011 RMK A01 T00340006  RH  083%=      5-min Rain = 0
KSGV 180515Z 27002KT 03/00 A3011 RMK A01 T00330004  RH  083%=      5-min Rain = 0
KSGV 180520Z 27002KT 03/01 A3011 RMK A01 T00330006  RH  084%=      5-min Rain = 0
KSGV 180525Z 28002KT 04/01 A3011 RMK A01 T00350007  RH  083%=      5-min Rain = 0
KSGV 180530Z 28002KT 03/01 A3011 RMK A01 T00340005  RH  083%=      5-min Rain = 0
KSGV 180535Z 28002KT 03/00 A301 RMK A01 T00310004  RH  083%=      5-min Rain = 0
KSGV 180540Z 28001KT 03/01 A301 RMK A01 T00310005  RH  084%=      5-min Rain = 0
KSGV 180545Z 28001KT 03/01 A301 RMK A01 T00320005  RH  083%=      5-min Rain = 0
KSGV 180550Z 28002KT 04/01 A301 RMK A01 T00350006  RH  083%=      5-min Rain = 0
KSGV 180555Z 27002KT 04/01 A3009 RMK A01 T00360006  RH  082%=      5-min Rain = 0

Page generated in 0.0089 seconds.